MHTG/TGU METAR and TAF weather

Enter ICAO airport designator
Station Type Date Time Source
MHTG METAR 2019/05/26 23:00 UTC NOAA

MHTG 262300Z 09004KT 9999 SCT030 SCT080 24/16 Q1016 A3000 NOSIG


Station Type Date Time Source
MHTG Decoded METAR 2019/05/26 23:00 UTC NOAA

Tegucigalpa, Honduras (MHTG) 14-03N 087-13W 1007M
May 26, 2019 - 07:00 PM EDT / 2019.05.26 2300 UTC
Wind: from the E (090 degrees) at 5 MPH (4 KT):0
Visibility: greater than 7 mile(s):0
Sky conditions: partly cloudy
Temperature: 75 F (24 C)
Dew Point: 60 F (16 C)
Relative Humidity: 60%
Pressure (altimeter): 30 in. Hg (1015 hPa)
ob: MHTG 262300Z 09004KT 9999 SCT030 SCT080 24/16 Q1016 A3000 NOSIG
cycle: 23

Station Type Date Time Source
MHTG TAF 2019/05/26 18:54 UTC NOAA

TAF MHTG 261645Z 2618/2718 07004KT 9999 BKN026 BKN080 TX26/2620Z TN18/2712Z
TEMPO 2620/2702 5000 -TSRA SCT028TCU FEW030CB BKN080
BECMG 2702/2704 8000 VCSH SCT026 SCT080
BECMG 2706/2708 01004KT 999 NSW
BECMG 2710/2712 8000 FEW008 SCT024 SCT080

Example: see airport list